sensor_id;sensor_type;location;lat;lon;timestamp;pressure;altitude;pressure_sealevel;temperature;humidity
64200;BME280;50516;52.272;5.136;2023-05-22T00:00:24;101628.19;;;16.34;91.67
64200;BME280;50516;52.272;5.136;2023-05-22T00:02:50;101617.59;;;16.41;90.74
64200;BME280;50516;52.272;5.136;2023-05-22T00:05:16;101620.94;;;16.38;91.04
64200;BME280;50516;52.272;5.136;2023-05-22T00:07:42;101614.88;;;16.36;91.14
64200;BME280;50516;52.272;5.136;2023-05-22T00:10:08;101612.69;;;16.33;90.67
64200;BME280;50516;52.272;5.136;2023-05-22T00:12:34;101603.28;;;16.29;90.68
64200;BME280;50516;52.272;5.136;2023-05-22T00:14:59;101620.44;;;16.31;90.57
64200;BME280;50516;52.272;5.136;2023-05-22T00:17:25;101609.34;;;16.36;90.74
64200;BME280;50516;52.272;5.136;2023-05-22T00:19:51;101602.78;;;16.27;91.19
64200;BME280;50516;52.272;5.136;2023-05-22T00:22:17;101606.66;;;16.25;91.50
64200;BME280;50516;52.272;5.136;2023-05-22T00:24:43;101625.16;;;16.30;90.88
64200;BME280;50516;52.272;5.136;2023-05-22T00:27:08;101617.16;;;16.29;91.58
64200;BME280;50516;52.272;5.136;2023-05-22T00:29:33;101610.56;;;16.24;92.24
64200;BME280;50516;52.272;5.136;2023-05-22T00:31:59;101602.94;;;16.35;91.83
64200;BME280;50516;52.272;5.136;2023-05-22T00:34:24;101596.28;;;16.36;91.84
64200;BME280;50516;52.272;5.136;2023-05-22T00:36:49;101610.78;;;16.28;91.89
64200;BME280;50516;52.272;5.136;2023-05-22T00:39:15;101596.88;;;16.33;91.79
64200;BME280;50516;52.272;5.136;2023-05-22T00:41:40;101596.38;;;16.26;91.89
64200;BME280;50516;52.272;5.136;2023-05-22T00:44:06;101598.88;;;16.28;92.18
64200;BME280;50516;52.272;5.136;2023-05-22T00:46:32;101603.06;;;16.25;92.36
64200;BME280;50516;52.272;5.136;2023-05-22T00:48:57;101601.91;;;16.26;92.44
64200;BME280;50516;52.272;5.136;2023-05-22T00:51:23;101599.94;;;16.32;92.26
64200;BME280;50516;52.272;5.136;2023-05-22T00:53:49;101586.91;;;16.32;92.83
64200;BME280;50516;52.272;5.136;2023-05-22T00:56:15;101588.34;;;16.30;92.94
64200;BME280;50516;52.272;5.136;2023-05-22T00:58:41;101589.38;;;16.34;93.07
64200;BME280;50516;52.272;5.136;2023-05-22T01:01:09;101592.44;;;16.32;93.28
64200;BME280;50516;52.272;5.136;2023-05-22T01:03:37;101586.09;;;16.32;93.63
64200;BME280;50516;52.272;5.136;2023-05-22T01:06:15;101579.38;;;16.38;93.14
64200;BME280;50516;52.272;5.136;2023-05-22T01:08:43;101576.31;;;16.39;93.22
64200;BME280;50516;52.272;5.136;2023-05-22T01:11:14;101570.28;;;16.32;93.66
64200;BME280;50516;52.272;5.136;2023-05-22T01:13:54;101557.28;;;16.28;94.10
64200;BME280;50516;52.272;5.136;2023-05-22T01:16:30;101553.78;;;16.22;94.61
64200;BME280;50516;52.272;5.136;2023-05-22T01:19:18;101551.75;;;16.28;94.52
64200;BME280;50516;52.272;5.136;2023-05-22T01:25:06;101543.72;;;16.26;95.00
64200;BME280;50516;52.272;5.136;2023-05-22T01:30:42;101547.41;;;16.21;95.50
64200;BME280;50516;52.272;5.136;2023-05-22T01:33:13;101542.75;;;16.17;95.79
64200;BME280;50516;52.272;5.136;2023-05-22T01:35:40;101536.34;;;16.21;95.41
64200;BME280;50516;52.272;5.136;2023-05-22T01:38:07;101547.34;;;16.27;95.24
64200;BME280;50516;52.272;5.136;2023-05-22T01:40:35;101542.09;;;16.25;94.95
64200;BME280;50516;52.272;5.136;2023-05-22T01:43:00;101542.16;;;16.20;95.18
64200;BME280;50516;52.272;5.136;2023-05-22T01:45:26;101534.44;;;16.17;95.11
64200;BME280;50516;52.272;5.136;2023-05-22T01:47:51;101524.28;;;16.07;95.19
64200;BME280;50516;52.272;5.136;2023-05-22T01:50:17;101530.88;;;16.11;94.71
64200;BME280;50516;52.272;5.136;2023-05-22T01:56:02;101520.19;;;15.99;95.39
64200;BME280;50516;52.272;5.136;2023-05-22T01:58:33;101509.19;;;15.94;95.33
64200;BME280;50516;52.272;5.136;2023-05-22T02:01:01;101502.81;;;15.94;95.46
64200;BME280;50516;52.272;5.136;2023-05-22T02:03:30;101506.13;;;15.96;94.74
64200;BME280;50516;52.272;5.136;2023-05-22T02:05:58;101495.03;;;15.96;94.55
64200;BME280;50516;52.272;5.136;2023-05-22T02:08:25;101492.34;;;15.91;94.66
64200;BME280;50516;52.272;5.136;2023-05-22T02:10:54;101493.56;;;15.79;94.89
64200;BME280;50516;52.272;5.136;2023-05-22T02:13:20;101488.59;;;15.76;95.27
64200;BME280;50516;52.272;5.136;2023-05-22T02:15:46;101490.78;;;15.74;94.97
64200;BME280;50516;52.272;5.136;2023-05-22T02:18:12;101486.38;;;15.73;94.80
64200;BME280;50516;52.272;5.136;2023-05-22T02:20:37;101484.72;;;15.72;94.67
64200;BME280;50516;52.272;5.136;2023-05-22T02:23:02;101486.16;;;15.64;94.79
64200;BME280;50516;52.272;5.136;2023-05-22T02:25:28;101480.91;;;15.63;94.78
64200;BME280;50516;52.272;5.136;2023-05-22T02:27:53;101479.00;;;15.63;94.50
64200;BME280;50516;52.272;5.136;2023-05-22T02:30:18;101482.00;;;15.67;94.17
64200;BME280;50516;52.272;5.136;2023-05-22T02:32:45;101471.75;;;15.67;94.20
64200;BME280;50516;52.272;5.136;2023-05-22T02:35:10;101472.88;;;15.66;94.00
64200;BME280;50516;52.272;5.136;2023-05-22T02:37:36;101478.72;;;15.65;93.80
64200;BME280;50516;52.272;5.136;2023-05-22T02:40:01;101475.16;;;15.59;93.66
64200;BME280;50516;52.272;5.136;2023-05-22T02:42:28;101470.19;;;15.56;93.82
64200;BME280;50516;52.272;5.136;2023-05-22T02:44:54;101473.81;;;15.51;93.58
64200;BME280;50516;52.272;5.136;2023-05-22T02:47:19;101471.63;;;15.48;93.53
64200;BME280;50516;52.272;5.136;2023-05-22T02:49:44;101481.06;;;15.47;93.58
64200;BME280;50516;52.272;5.136;2023-05-22T02:52:10;101467.47;;;15.51;93.58
64200;BME280;50516;52.272;5.136;2023-05-22T02:54:35;101469.13;;;15.52;93.31
64200;BME280;50516;52.272;5.136;2023-05-22T02:57:01;101467.75;;;15.49;93.30
64200;BME280;50516;52.272;5.136;2023-05-22T02:59:26;101465.28;;;15.48;93.27
64200;BME280;50516;52.272;5.136;2023-05-22T03:01:52;101461.78;;;15.37;93.54
64200;BME280;50516;52.272;5.136;2023-05-22T03:04:18;101460.44;;;15.34;93.45
64200;BME280;50516;52.272;5.136;2023-05-22T03:06:43;101466.25;;;15.33;93.47
64200;BME280;50516;52.272;5.136;2023-05-22T03:09:10;101465.44;;;15.32;93.21
64200;BME280;50516;52.272;5.136;2023-05-22T03:11:35;101467.88;;;15.34;92.91
64200;BME280;50516;52.272;5.136;2023-05-22T03:14:01;101464.81;;;15.36;92.77
64200;BME280;50516;52.272;5.136;2023-05-22T03:16:26;101463.97;;;15.40;93.34
64200;BME280;50516;52.272;5.136;2023-05-22T03:19:06;101470.63;;;15.39;93.25
64200;BME280;50516;52.272;5.136;2023-05-22T03:21:31;101460.19;;;15.31;92.89
64200;BME280;50516;52.272;5.136;2023-05-22T03:23:57;101461.28;;;15.30;92.53
64200;BME280;50516;52.272;5.136;2023-05-22T03:26:22;101462.94;;;15.31;92.76
64200;BME280;50516;52.272;5.136;2023-05-22T03:28:47;101456.31;;;15.27;92.53
64200;BME280;50516;52.272;5.136;2023-05-22T03:31:14;101466.28;;;15.28;92.62
64200;BME280;50516;52.272;5.136;2023-05-22T03:33:40;101456.84;;;15.29;92.53
64200;BME280;50516;52.272;5.136;2023-05-22T03:36:05;101461.00;;;15.31;92.65
64200;BME280;50516;52.272;5.136;2023-05-22T03:38:31;101461.28;;;15.30;92.67
64200;BME280;50516;52.272;5.136;2023-05-22T03:40:56;101467.69;;;15.25;92.48
64200;BME280;50516;52.272;5.136;2023-05-22T03:43:21;101459.16;;;15.22;92.21
64200;BME280;50516;52.272;5.136;2023-05-22T03:45:46;101460.19;;;15.26;92.34
64200;BME280;50516;52.272;5.136;2023-05-22T03:48:12;101471.81;;;15.28;92.54
64200;BME280;50516;52.272;5.136;2023-05-22T03:50:37;101464.91;;;15.25;92.20
64200;BME280;50516;52.272;5.136;2023-05-22T03:53:02;101469.06;;;15.28;92.46
64200;BME280;50516;52.272;5.136;2023-05-22T03:55:28;101477.03;;;15.34;92.05
64200;BME280;50516;52.272;5.136;2023-05-22T03:57:54;101480.31;;;15.37;92.09
64200;BME280;50516;52.272;5.136;2023-05-22T04:00:20;101473.41;;;15.34;91.96
64200;BME280;50516;52.272;5.136;2023-05-22T04:02:46;101489.44;;;15.37;92.64
64200;BME280;50516;52.272;5.136;2023-05-22T04:05:11;101500.59;;;15.27;93.29
64200;BME280;50516;52.272;5.136;2023-05-22T04:07:36;101495.00;;;15.32;92.79
64200;BME280;50516;52.272;5.136;2023-05-22T04:10:05;101490.06;;;15.29;92.58
64200;BME280;50516;52.272;5.136;2023-05-22T04:12:31;101493.06;;;15.38;92.09
64200;BME280;50516;52.272;5.136;2023-05-22T04:14:56;101486.88;;;15.46;92.10
64200;BME280;50516;52.272;5.136;2023-05-22T04:17:21;101491.59;;;15.45;92.49
64200;BME280;50516;52.272;5.136;2023-05-22T04:19:47;101502.59;;;15.56;92.42
64200;BME280;50516;52.272;5.136;2023-05-22T04:22:12;101510.50;;;15.67;92.38
64200;BME280;50516;52.272;5.136;2023-05-22T04:24:37;101502.25;;;15.62;91.57
64200;BME280;50516;52.272;5.136;2023-05-22T04:27:04;101501.91;;;15.69;92.08
64200;BME280;50516;52.272;5.136;2023-05-22T04:29:30;101501.56;;;15.76;91.77
64200;BME280;50516;52.272;5.136;2023-05-22T04:31:55;101502.38;;;15.81;91.30
64200;BME280;50516;52.272;5.136;2023-05-22T04:34:20;101503.44;;;15.85;91.21
64200;BME280;50516;52.272;5.136;2023-05-22T04:36:46;101505.69;;;15.83;91.25
64200;BME280;50516;52.272;5.136;2023-05-22T04:39:12;101521.13;;;15.90;91.18
64200;BME280;50516;52.272;5.136;2023-05-22T04:41:41;101524.66;;;15.95;91.59
64200;BME280;50516;52.272;5.136;2023-05-22T04:44:06;101526.66;;;15.90;92.15
64200;BME280;50516;52.272;5.136;2023-05-22T04:46:32;101518.75;;;16.07;91.20
64200;BME280;50516;52.272;5.136;2023-05-22T04:49:00;101528.84;;;16.22;91.76
64200;BME280;50516;52.272;5.136;2023-05-22T04:51:29;101521.69;;;16.40;91.14
64200;BME280;50516;52.272;5.136;2023-05-22T04:53:55;101518.56;;;16.47;90.96
64200;BME280;50516;52.272;5.136;2023-05-22T04:56:22;101520.03;;;16.63;90.71
64200;BME280;50516;52.272;5.136;2023-05-22T04:58:49;101527.38;;;16.73;89.93
64200;BME280;50516;52.272;5.136;2023-05-22T05:01:14;101524.59;;;16.73;90.07
64200;BME280;50516;52.272;5.136;2023-05-22T05:03:41;101520.50;;;16.70;90.42
64200;BME280;50516;52.272;5.136;2023-05-22T05:06:06;101517.78;;;16.89;90.10
64200;BME280;50516;52.272;5.136;2023-05-22T05:08:32;101520.41;;;17.00;89.83
64200;BME280;50516;52.272;5.136;2023-05-22T05:10:58;101523.31;;;17.08;89.48
64200;BME280;50516;52.272;5.136;2023-05-22T05:13:23;101520.63;;;17.22;89.72
64200;BME280;50516;52.272;5.136;2023-05-22T05:15:48;101522.72;;;17.30;89.38
64200;BME280;50516;52.272;5.136;2023-05-22T05:18:14;101517.53;;;17.43;89.36
64200;BME280;50516;52.272;5.136;2023-05-22T05:20:39;101507.38;;;17.52;89.30
64200;BME280;50516;52.272;5.136;2023-05-22T05:23:04;101519.34;;;17.66;89.29
64200;BME280;50516;52.272;5.136;2023-05-22T05:25:30;101515.34;;;17.73;89.33
64200;BME280;50516;52.272;5.136;2023-05-22T05:27:55;101512.88;;;17.90;88.89
64200;BME280;50516;52.272;5.136;2023-05-22T05:30:21;101519.16;;;17.96;89.70
64200;BME280;50516;52.272;5.136;2023-05-22T05:32:47;101522.31;;;17.89;89.52
64200;BME280;50516;52.272;5.136;2023-05-22T05:35:12;101518.81;;;17.97;89.68
64200;BME280;50516;52.272;5.136;2023-05-22T05:37:37;101522.88;;;17.72;90.21
64200;BME280;50516;52.272;5.136;2023-05-22T05:40:03;101511.41;;;17.60;91.64
64200;BME280;50516;52.272;5.136;2023-05-22T05:42:31;101514.41;;;17.63;92.08
64200;BME280;50516;52.272;5.136;2023-05-22T05:44:56;101518.47;;;17.52;92.40
64200;BME280;50516;52.272;5.136;2023-05-22T05:47:21;101514.38;;;17.49;93.19
64200;BME280;50516;52.272;5.136;2023-05-22T05:49:48;101521.78;;;17.54;93.44
64200;BME280;50516;52.272;5.136;2023-05-22T05:52:13;101523.38;;;17.60;93.25
64200;BME280;50516;52.272;5.136;2023-05-22T05:54:38;101523.88;;;17.62;93.66
64200;BME280;50516;52.272;5.136;2023-05-22T05:57:10;101518.03;;;17.78;93.37
64200;BME280;50516;52.272;5.136;2023-05-22T05:59:36;101515.78;;;18.13;92.24
64200;BME280;50516;52.272;5.136;2023-05-22T06:02:01;101520.09;;;18.33;91.38
64200;BME280;50516;52.272;5.136;2023-05-22T06:04:26;101512.81;;;18.51;90.91
64200;BME280;50516;52.272;5.136;2023-05-22T06:06:52;101515.66;;;18.73;90.41
64200;BME280;50516;52.272;5.136;2023-05-22T06:09:17;101511.44;;;18.90;90.44
64200;BME280;50516;52.272;5.136;2023-05-22T06:11:43;101515.63;;;19.01;90.01
64200;BME280;50516;52.272;5.136;2023-05-22T06:14:08;101510.19;;;18.96;90.81
64200;BME280;50516;52.272;5.136;2023-05-22T06:16:34;101514.63;;;19.20;90.47
64200;BME280;50516;52.272;5.136;2023-05-22T06:18:59;101508.63;;;19.26;90.29
64200;BME280;50516;52.272;5.136;2023-05-22T06:21:25;101516.75;;;19.37;90.52
64200;BME280;50516;52.272;5.136;2023-05-22T06:23:50;101507.97;;;19.43;89.97
64200;BME280;50516;52.272;5.136;2023-05-22T06:26:16;101513.84;;;19.64;91.35
64200;BME280;50516;52.272;5.136;2023-05-22T06:28:42;101521.19;;;19.83;91.73
64200;BME280;50516;52.272;5.136;2023-05-22T06:31:08;101525.31;;;19.85;89.06
64200;BME280;50516;52.272;5.136;2023-05-22T06:33:34;101521.94;;;19.29;89.90
64200;BME280;50516;52.272;5.136;2023-05-22T06:36:01;101520.97;;;19.34;91.22
64200;BME280;50516;52.272;5.136;2023-05-22T06:38:26;101531.16;;;19.16;90.94
64200;BME280;50516;52.272;5.136;2023-05-22T06:40:52;101528.13;;;19.26;90.22
64200;BME280;50516;52.272;5.136;2023-05-22T06:43:17;101528.84;;;19.32;90.59
64200;BME280;50516;52.272;5.136;2023-05-22T06:45:42;101531.63;;;19.32;91.34
64200;BME280;50516;52.272;5.136;2023-05-22T06:48:08;101534.78;;;19.62;91.31
64200;BME280;50516;52.272;5.136;2023-05-22T06:50:33;101528.44;;;19.70;91.24
64200;BME280;50516;52.272;5.136;2023-05-22T06:52:58;101537.47;;;19.90;89.85
64200;BME280;50516;52.272;5.136;2023-05-22T06:55:24;101537.66;;;19.48;88.41
64200;BME280;50516;52.272;5.136;2023-05-22T06:57:49;101537.06;;;19.60;88.57
64200;BME280;50516;52.272;5.136;2023-05-22T07:00:15;101541.88;;;19.91;90.61
64200;BME280;50516;52.272;5.136;2023-05-22T07:02:42;101543.75;;;20.04;89.75
64200;BME280;50516;52.272;5.136;2023-05-22T07:05:07;101540.50;;;20.42;89.12
64200;BME280;50516;52.272;5.136;2023-05-22T07:07:33;101543.28;;;20.42;86.58
64200;BME280;50516;52.272;5.136;2023-05-22T07:09:58;101539.88;;;20.54;87.68
64200;BME280;50516;52.272;5.136;2023-05-22T07:12:24;101541.34;;;20.51;84.33
64200;BME280;50516;52.272;5.136;2023-05-22T07:14:52;101542.66;;;20.54;84.14
64200;BME280;50516;52.272;5.136;2023-05-22T07:17:18;101551.00;;;20.45;84.59
64200;BME280;50516;52.272;5.136;2023-05-22T07:19:45;101547.91;;;20.55;84.18
64200;BME280;50516;52.272;5.136;2023-05-22T07:22:10;101547.44;;;20.62;83.40
64200;BME280;50516;52.272;5.136;2023-05-22T07:24:36;101545.78;;;20.52;83.27
64200;BME280;50516;52.272;5.136;2023-05-22T07:27:01;101554.50;;;20.59;84.96
64200;BME280;50516;52.272;5.136;2023-05-22T07:29:28;101551.84;;;21.12;83.53
64200;BME280;50516;52.272;5.136;2023-05-22T07:31:54;101565.47;;;21.13;83.29
64200;BME280;50516;52.272;5.136;2023-05-22T07:34:19;101571.41;;;21.29;83.46
64200;BME280;50516;52.272;5.136;2023-05-22T07:36:45;101565.19;;;21.24;82.99
64200;BME280;50516;52.272;5.136;2023-05-22T07:39:10;101568.78;;;21.42;81.47
64200;BME280;50516;52.272;5.136;2023-05-22T07:41:36;101567.13;;;21.41;81.32
64200;BME280;50516;52.272;5.136;2023-05-22T07:44:01;101567.28;;;21.44;80.97
64200;BME280;50516;52.272;5.136;2023-05-22T07:46:26;101561.06;;;21.47;79.63
64200;BME280;50516;52.272;5.136;2023-05-22T07:48:51;101564.19;;;21.37;80.87
64200;BME280;50516;52.272;5.136;2023-05-22T07:51:17;101558.28;;;21.65;79.57
64200;BME280;50516;52.272;5.136;2023-05-22T07:53:43;101564.81;;;21.43;80.02
64200;BME280;50516;52.272;5.136;2023-05-22T07:56:08;101560.75;;;21.40;80.60
64200;BME280;50516;52.272;5.136;2023-05-22T07:58:34;101558.75;;;21.41;80.18
64200;BME280;50516;52.272;5.136;2023-05-22T08:00:59;101563.84;;;21.21;78.76
64200;BME280;50516;52.272;5.136;2023-05-22T08:03:25;101565.53;;;21.48;80.76
64200;BME280;50516;52.272;5.136;2023-05-22T08:05:51;101567.28;;;21.44;80.39
64200;BME280;50516;52.272;5.136;2023-05-22T08:08:16;101561.41;;;21.55;78.95
64200;BME280;50516;52.272;5.136;2023-05-22T08:10:42;101568.63;;;21.73;79.33
64200;BME280;50516;52.272;5.136;2023-05-22T08:13:07;101564.34;;;21.76;77.24
64200;BME280;50516;52.272;5.136;2023-05-22T08:15:32;101573.41;;;21.73;78.18
64200;BME280;50516;52.272;5.136;2023-05-22T08:17:59;101567.41;;;22.00;78.49
64200;BME280;50516;52.272;5.136;2023-05-22T08:20:24;101573.00;;;22.00;76.55
64200;BME280;50516;52.272;5.136;2023-05-22T08:22:49;101572.66;;;22.11;77.62
64200;BME280;50516;52.272;5.136;2023-05-22T08:25:15;101569.06;;;22.01;75.75
64200;BME280;50516;52.272;5.136;2023-05-22T08:27:40;101570.91;;;21.80;74.34
64200;BME280;50516;52.272;5.136;2023-05-22T08:30:06;101577.28;;;21.98;76.28
64200;BME280;50516;52.272;5.136;2023-05-22T08:32:32;101580.44;;;21.96;75.73
64200;BME280;50516;52.272;5.136;2023-05-22T08:34:57;101579.22;;;22.62;73.40
64200;BME280;50516;52.272;5.136;2023-05-22T08:37:23;101560.63;;;22.66;72.88
64200;BME280;50516;52.272;5.136;2023-05-22T08:39:48;101571.81;;;22.66;73.40
64200;BME280;50516;52.272;5.136;2023-05-22T08:42:14;101562.81;;;22.82;73.10
64200;BME280;50516;52.272;5.136;2023-05-22T08:44:39;101558.38;;;23.10;72.36
64200;BME280;50516;52.272;5.136;2023-05-22T08:47:05;101558.69;;;23.18;71.66
64200;BME280;50516;52.272;5.136;2023-05-22T08:49:35;101557.09;;;22.48;74.46
64200;BME280;50516;52.272;5.136;2023-05-22T08:52:08;101553.63;;;23.11;72.95
64200;BME280;50516;52.272;5.136;2023-05-22T08:54:35;101559.63;;;23.22;71.49
64200;BME280;50516;52.272;5.136;2023-05-22T08:57:05;101549.25;;;23.22;72.21
64200;BME280;50516;52.272;5.136;2023-05-22T08:59:30;101553.16;;;23.00;72.19
64200;BME280;50516;52.272;5.136;2023-05-22T09:01:56;101541.28;;;23.03;73.23
64200;BME280;50516;52.272;5.136;2023-05-22T09:04:23;101543.06;;;23.50;71.19
64200;BME280;50516;52.272;5.136;2023-05-22T09:06:48;101550.41;;;23.21;71.83
64200;BME280;50516;52.272;5.136;2023-05-22T09:09:14;101541.66;;;22.93;71.21
64200;BME280;50516;52.272;5.136;2023-05-22T09:11:39;101540.94;;;23.05;71.70
64200;BME280;50516;52.272;5.136;2023-05-22T09:14:06;101535.16;;;23.10;70.31
64200;BME280;50516;52.272;5.136;2023-05-22T09:16:32;101545.81;;;23.38;71.25
64200;BME280;50516;52.272;5.136;2023-05-22T09:18:58;101527.63;;;23.44;69.66
64200;BME280;50516;52.272;5.136;2023-05-22T09:21:26;101534.56;;;23.59;70.17
64200;BME280;50516;52.272;5.136;2023-05-22T09:23:53;101536.97;;;23.81;68.91
64200;BME280;50516;52.272;5.136;2023-05-22T09:26:18;101531.88;;;23.29;66.89
64200;BME280;50516;52.272;5.136;2023-05-22T09:28:46;101535.75;;;23.15;66.55
64200;BME280;50516;52.272;5.136;2023-05-22T09:31:11;101530.31;;;23.19;68.24
64200;BME280;50516;52.272;5.136;2023-05-22T09:33:36;101530.50;;;23.35;67.82
64200;BME280;50516;52.272;5.136;2023-05-22T09:36:02;101519.34;;;23.47;67.77
64200;BME280;50516;52.272;5.136;2023-05-22T09:38:28;101530.22;;;23.49;66.57
64200;BME280;50516;52.272;5.136;2023-05-22T09:40:54;101524.59;;;23.82;66.69
64200;BME280;50516;52.272;5.136;2023-05-22T09:43:21;101527.81;;;23.93;65.84
64200;BME280;50516;52.272;5.136;2023-05-22T09:45:55;101533.50;;;23.30;66.69
64200;BME280;50516;52.272;5.136;2023-05-22T09:48:22;101528.16;;;23.58;66.86
64200;BME280;50516;52.272;5.136;2023-05-22T09:50:48;101526.59;;;23.06;68.63
64200;BME280;50516;52.272;5.136;2023-05-22T09:53:15;101531.88;;;23.62;68.23
64200;BME280;50516;52.272;5.136;2023-05-22T09:55:43;101535.81;;;23.82;67.29
64200;BME280;50516;52.272;5.136;2023-05-22T09:58:12;101535.22;;;24.22;66.37
64200;BME280;50516;52.272;5.136;2023-05-22T10:00:40;101535.75;;;24.62;64.37
64200;BME280;50516;52.272;5.136;2023-05-22T10:03:08;101539.44;;;24.53;64.56
64200;BME280;50516;52.272;5.136;2023-05-22T10:05:36;101536.94;;;24.02;62.48
64200;BME280;50516;52.272;5.136;2023-05-22T10:08:10;101535.94;;;24.19;63.82
64200;BME280;50516;52.272;5.136;2023-05-22T10:10:37;101533.97;;;23.86;63.85
64200;BME280;50516;52.272;5.136;2023-05-22T10:13:03;101536.97;;;23.81;65.19
64200;BME280;50516;52.272;5.136;2023-05-22T10:15:30;101536.84;;;23.78;65.37
64200;BME280;50516;52.272;5.136;2023-05-22T10:17:57;101533.59;;;23.76;65.42
64200;BME280;50516;52.272;5.136;2023-05-22T10:20:23;101537.78;;;23.82;64.92
64200;BME280;50516;52.272;5.136;2023-05-22T10:22:49;101532.59;;;23.93;64.97
64200;BME280;50516;52.272;5.136;2023-05-22T10:25:16;101534.41;;;24.22;64.16
64200;BME280;50516;52.272;5.136;2023-05-22T10:27:42;101538.72;;;24.32;63.27
64200;BME280;50516;52.272;5.136;2023-05-22T10:30:23;101530.91;;;24.25;63.27
64200;BME280;50516;52.272;5.136;2023-05-22T10:33:13;101532.19;;;24.52;62.47
64200;BME280;50516;52.272;5.136;2023-05-22T10:35:51;101531.50;;;24.55;62.63
64200;BME280;50516;52.272;5.136;2023-05-22T10:41:04;101530.91;;;24.13;61.92
64200;BME280;50516;52.272;5.136;2023-05-22T10:43:30;101528.56;;;24.39;61.77
64200;BME280;50516;52.272;5.136;2023-05-22T10:46:04;101524.47;;;24.24;59.80
64200;BME280;50516;52.272;5.136;2023-05-22T10:48:43;101524.22;;;24.05;61.53
64200;BME280;50516;52.272;5.136;2023-05-22T10:51:11;101517.00;;;24.41;61.66
64200;BME280;50516;52.272;5.136;2023-05-22T10:53:37;101515.25;;;24.49;60.65
64200;BME280;50516;52.272;5.136;2023-05-22T10:56:15;101511.00;;;24.92;59.81
64200;BME280;50516;52.272;5.136;2023-05-22T10:58:43;101514.97;;;24.91;59.64
64200;BME280;50516;52.272;5.136;2023-05-22T11:01:18;101510.94;;;24.64;60.02
64200;BME280;50516;52.272;5.136;2023-05-22T11:04:00;101513.25;;;24.37;59.84
64200;BME280;50516;52.272;5.136;2023-05-22T11:09:44;101507.63;;;24.74;60.40
64200;BME280;50516;52.272;5.136;2023-05-22T11:14:54;101505.75;;;24.78;59.07
64200;BME280;50516;52.272;5.136;2023-05-22T11:17:21;101502.94;;;24.90;58.91
64200;BME280;50516;52.272;5.136;2023-05-22T11:22:40;101495.66;;;24.89;58.22
64200;BME280;50516;52.272;5.136;2023-05-22T11:25:07;101500.84;;;24.87;58.29
64200;BME280;50516;52.272;5.136;2023-05-22T11:27:33;101500.59;;;24.92;57.60
64200;BME280;50516;52.272;5.136;2023-05-22T11:29:59;101491.88;;;24.69;57.75
64200;BME280;50516;52.272;5.136;2023-05-22T11:32:26;101496.47;;;24.90;57.53
64200;BME280;50516;52.272;5.136;2023-05-22T11:34:52;101506.31;;;24.96;58.60
64200;BME280;50516;52.272;5.136;2023-05-22T11:37:18;101489.06;;;25.10;56.78
64200;BME280;50516;52.272;5.136;2023-05-22T11:39:57;101498.47;;;25.02;57.38
64200;BME280;50516;52.272;5.136;2023-05-22T11:42:23;101498.22;;;24.94;57.25
64200;BME280;50516;52.272;5.136;2023-05-22T11:44:48;101496.28;;;24.83;59.80
64200;BME280;50516;52.272;5.136;2023-05-22T11:47:14;101495.47;;;24.82;60.08
64200;BME280;50516;52.272;5.136;2023-05-22T11:49:40;101495.66;;;24.89;60.18
64200;BME280;50516;52.272;5.136;2023-05-22T11:52:07;101484.00;;;24.63;59.66
64200;BME280;50516;52.272;5.136;2023-05-22T11:54:33;101486.56;;;24.43;61.83
64200;BME280;50516;52.272;5.136;2023-05-22T11:56:58;101490.78;;;24.49;61.85
64200;BME280;50516;52.272;5.136;2023-05-22T11:59:23;101495.50;;;24.57;62.60
64200;BME280;50516;52.272;5.136;2023-05-22T12:01:49;101494.44;;;24.62;62.77
64200;BME280;50516;52.272;5.136;2023-05-22T12:04:15;101506.47;;;24.38;63.16
64200;BME280;50516;52.272;5.136;2023-05-22T12:06:41;101510.31;;;24.70;62.63
64200;BME280;50516;52.272;5.136;2023-05-22T12:09:06;101518.41;;;24.47;63.98
64200;BME280;50516;52.272;5.136;2023-05-22T12:11:36;101515.84;;;24.79;63.04
64200;BME280;50516;52.272;5.136;2023-05-22T12:14:03;101518.41;;;24.47;62.76
64200;BME280;50516;52.272;5.136;2023-05-22T12:16:34;101516.28;;;24.44;63.07
64200;BME280;50516;52.272;5.136;2023-05-22T12:19:04;101515.22;;;24.36;63.74
64200;BME280;50516;52.272;5.136;2023-05-22T12:21:30;101518.59;;;24.17;63.05
64200;BME280;50516;52.272;5.136;2023-05-22T12:23:56;101529.16;;;24.33;64.08
64200;BME280;50516;52.272;5.136;2023-05-22T12:26:21;101532.19;;;24.28;63.79
64200;BME280;50516;52.272;5.136;2023-05-22T12:28:47;101539.41;;;24.04;63.71
64200;BME280;50516;52.272;5.136;2023-05-22T12:31:21;101535.78;;;24.16;62.77
64200;BME280;50516;52.272;5.136;2023-05-22T12:33:47;101542.56;;;24.27;63.38
64200;BME280;50516;52.272;5.136;2023-05-22T12:36:12;101534.97;;;24.03;62.63
64200;BME280;50516;52.272;5.136;2023-05-22T12:38:40;101538.91;;;23.90;62.22
64200;BME280;50516;52.272;5.136;2023-05-22T12:41:05;101540.81;;;23.77;63.31
64200;BME280;50516;52.272;5.136;2023-05-22T12:43:31;101541.25;;;23.66;61.95
64200;BME280;50516;52.272;5.136;2023-05-22T12:45:56;101531.59;;;23.76;62.26
64200;BME280;50516;52.272;5.136;2023-05-22T12:48:21;101532.38;;;23.85;60.60
64200;BME280;50516;52.272;5.136;2023-05-22T12:50:47;101521.72;;;23.58;60.83
64200;BME280;50516;52.272;5.136;2023-05-22T12:53:12;101542.34;;;23.74;59.46
64200;BME280;50516;52.272;5.136;2023-05-22T12:55:38;101537.13;;;23.51;59.67
64200;BME280;50516;52.272;5.136;2023-05-22T12:58:04;101533.66;;;23.67;59.95
64200;BME280;50516;52.272;5.136;2023-05-22T13:00:29;101531.19;;;23.86;59.22
64200;BME280;50516;52.272;5.136;2023-05-22T13:02:55;101536.09;;;23.90;57.18
64200;BME280;50516;52.272;5.136;2023-05-22T13:05:21;101540.47;;;24.12;58.41
64200;BME280;50516;52.272;5.136;2023-05-22T13:07:46;101530.25;;;23.95;57.38